sensor_id;sensor_type;location;lat;lon;timestamp;P1;durP1;ratioP1;P2;durP2;ratioP2
28631;SDS011;15818;45.534;5.292;2022-07-29T00:01:06;3.45;;;1.70;;
28631;SDS011;15818;45.534;5.292;2022-07-29T00:03:32;3.53;;;1.85;;
28631;SDS011;15818;45.534;5.292;2022-07-29T00:05:58;2.25;;;1.60;;
28631;SDS011;15818;45.534;5.292;2022-07-29T00:08:24;3.60;;;1.85;;
28631;SDS011;15818;45.534;5.292;2022-07-29T00:10:49;2.63;;;1.60;;
28631;SDS011;15818;45.534;5.292;2022-07-29T00:13:15;5.45;;;1.52;;
28631;SDS011;15818;45.534;5.292;2022-07-29T00:15:41;2.20;;;1.48;;
28631;SDS011;15818;45.534;5.292;2022-07-29T00:18:07;6.30;;;1.60;;
28631;SDS011;15818;45.534;5.292;2022-07-29T00:20:32;2.78;;;1.23;;
28631;SDS011;15818;45.534;5.292;2022-07-29T00:22:58;3.25;;;1.42;;
28631;SDS011;15818;45.534;5.292;2022-07-29T00:25:24;3.25;;;1.38;;
28631;SDS011;15818;45.534;5.292;2022-07-29T00:27:50;3.90;;;1.70;;
28631;SDS011;15818;45.534;5.292;2022-07-29T00:30:15;4.85;;;1.50;;
28631;SDS011;15818;45.534;5.292;2022-07-29T00:32:41;5.70;;;1.85;;
28631;SDS011;15818;45.534;5.292;2022-07-29T00:35:07;1.80;;;1.42;;
28631;SDS011;15818;45.534;5.292;2022-07-29T00:37:51;2.17;;;1.50;;
28631;SDS011;15818;45.534;5.292;2022-07-29T00:40:17;3.45;;;1.40;;
28631;SDS011;15818;45.534;5.292;2022-07-29T00:42:44;2.20;;;1.30;;
28631;SDS011;15818;45.534;5.292;2022-07-29T00:45:11;2.35;;;1.13;;
28631;SDS011;15818;45.534;5.292;2022-07-29T00:47:37;2.72;;;1.35;;
28631;SDS011;15818;45.534;5.292;2022-07-29T00:50:04;4.65;;;1.70;;
28631;SDS011;15818;45.534;5.292;2022-07-29T00:52:31;4.95;;;2.10;;
28631;SDS011;15818;45.534;5.292;2022-07-29T00:54:57;2.35;;;1.10;;
28631;SDS011;15818;45.534;5.292;2022-07-29T00:57:23;4.07;;;1.50;;
28631;SDS011;15818;45.534;5.292;2022-07-29T00:59:49;3.78;;;1.27;;
28631;SDS011;15818;45.534;5.292;2022-07-29T01:02:15;3.70;;;1.40;;
28631;SDS011;15818;45.534;5.292;2022-07-29T01:04:40;2.17;;;1.30;;
28631;SDS011;15818;45.534;5.292;2022-07-29T01:07:06;2.75;;;1.42;;
28631;SDS011;15818;45.534;5.292;2022-07-29T01:09:32;1.95;;;1.20;;
28631;SDS011;15818;45.534;5.292;2022-07-29T01:12:01;4.85;;;1.40;;
28631;SDS011;15818;45.534;5.292;2022-07-29T01:14:27;3.90;;;1.48;;
28631;SDS011;15818;45.534;5.292;2022-07-29T01:22:27;6.32;;;1.50;;
28631;SDS011;15818;45.534;5.292;2022-07-29T01:25:12;3.92;;;1.50;;
28631;SDS011;15818;45.534;5.292;2022-07-29T01:28:06;4.88;;;1.60;;
28631;SDS011;15818;45.534;5.292;2022-07-29T01:30:42;3.17;;;1.63;;
28631;SDS011;15818;45.534;5.292;2022-07-29T01:33:12;1.50;;;1.20;;
28631;SDS011;15818;45.534;5.292;2022-07-29T01:36:06;4.57;;;1.27;;
28631;SDS011;15818;45.534;5.292;2022-07-29T01:38:38;1.80;;;1.35;;
28631;SDS011;15818;45.534;5.292;2022-07-29T01:41:08;8.10;;;1.60;;
28631;SDS011;15818;45.534;5.292;2022-07-29T01:43:44;4.68;;;1.40;;
28631;SDS011;15818;45.534;5.292;2022-07-29T01:46:13;2.05;;;1.33;;
28631;SDS011;15818;45.534;5.292;2022-07-29T01:48:50;7.05;;;1.70;;
28631;SDS011;15818;45.534;5.292;2022-07-29T01:51:20;4.30;;;1.40;;
28631;SDS011;15818;45.534;5.292;2022-07-29T01:54:04;6.45;;;1.90;;
28631;SDS011;15818;45.534;5.292;2022-07-29T01:56:36;1.38;;;1.20;;
28631;SDS011;15818;45.534;5.292;2022-07-29T01:59:05;5.85;;;1.52;;
28631;SDS011;15818;45.534;5.292;2022-07-29T02:01:33;5.13;;;1.77;;
28631;SDS011;15818;45.534;5.292;2022-07-29T02:04:03;2.85;;;1.90;;
28631;SDS011;15818;45.534;5.292;2022-07-29T02:06:33;5.07;;;1.60;;
28631;SDS011;15818;45.534;5.292;2022-07-29T02:09:02;5.78;;;1.73;;
28631;SDS011;15818;45.534;5.292;2022-07-29T02:11:29;2.88;;;1.65;;
28631;SDS011;15818;45.534;5.292;2022-07-29T02:13:58;3.85;;;1.55;;
28631;SDS011;15818;45.534;5.292;2022-07-29T02:16:26;2.28;;;1.60;;
28631;SDS011;15818;45.534;5.292;2022-07-29T02:18:54;4.65;;;1.42;;
28631;SDS011;15818;45.534;5.292;2022-07-29T02:21:23;4.85;;;1.50;;
28631;SDS011;15818;45.534;5.292;2022-07-29T02:23:51;5.25;;;1.50;;
28631;SDS011;15818;45.534;5.292;2022-07-29T02:26:19;3.97;;;1.70;;
28631;SDS011;15818;45.534;5.292;2022-07-29T02:28:47;4.07;;;1.25;;
28631;SDS011;15818;45.534;5.292;2022-07-29T02:31:15;2.83;;;1.60;;
28631;SDS011;15818;45.534;5.292;2022-07-29T02:33:44;4.60;;;1.40;;
28631;SDS011;15818;45.534;5.292;2022-07-29T02:36:12;6.47;;;1.40;;
28631;SDS011;15818;45.534;5.292;2022-07-29T02:38:38;3.33;;;1.23;;
28631;SDS011;15818;45.534;5.292;2022-07-29T02:41:17;5.47;;;1.63;;
28631;SDS011;15818;45.534;5.292;2022-07-29T02:43:56;6.45;;;1.50;;
28631;SDS011;15818;45.534;5.292;2022-07-29T02:46:31;3.92;;;1.33;;
28631;SDS011;15818;45.534;5.292;2022-07-29T02:51:57;1.83;;;1.27;;
28631;SDS011;15818;45.534;5.292;2022-07-29T02:54:34;2.60;;;1.40;;
28631;SDS011;15818;45.534;5.292;2022-07-29T03:00:10;4.25;;;1.73;;
28631;SDS011;15818;45.534;5.292;2022-07-29T03:02:38;6.63;;;1.80;;
28631;SDS011;15818;45.534;5.292;2022-07-29T03:05:09;3.55;;;1.50;;
28631;SDS011;15818;45.534;5.292;2022-07-29T03:07:40;6.60;;;1.60;;
28631;SDS011;15818;45.534;5.292;2022-07-29T03:10:08;1.80;;;1.52;;
28631;SDS011;15818;45.534;5.292;2022-07-29T03:12:34;4.80;;;1.73;;
28631;SDS011;15818;45.534;5.292;2022-07-29T03:15:01;3.03;;;1.65;;
28631;SDS011;15818;45.534;5.292;2022-07-29T03:17:27;7.68;;;2.15;;
28631;SDS011;15818;45.534;5.292;2022-07-29T03:19:54;2.70;;;1.50;;
28631;SDS011;15818;45.534;5.292;2022-07-29T03:22:20;3.63;;;1.50;;
28631;SDS011;15818;45.534;5.292;2022-07-29T03:24:46;2.80;;;1.67;;
28631;SDS011;15818;45.534;5.292;2022-07-29T03:27:12;5.30;;;2.35;;
28631;SDS011;15818;45.534;5.292;2022-07-29T03:29:38;2.28;;;1.70;;
28631;SDS011;15818;45.534;5.292;2022-07-29T03:32:04;3.28;;;1.90;;
28631;SDS011;15818;45.534;5.292;2022-07-29T03:34:31;6.45;;;1.95;;
28631;SDS011;15818;45.534;5.292;2022-07-29T03:36:56;3.90;;;1.90;;
28631;SDS011;15818;45.534;5.292;2022-07-29T03:39:24;2.63;;;1.95;;
28631;SDS011;15818;45.534;5.292;2022-07-29T03:41:55;4.82;;;1.80;;
28631;SDS011;15818;45.534;5.292;2022-07-29T03:44:23;2.63;;;1.40;;
28631;SDS011;15818;45.534;5.292;2022-07-29T03:46:50;2.00;;;1.65;;
28631;SDS011;15818;45.534;5.292;2022-07-29T03:49:19;3.33;;;1.67;;
28631;SDS011;15818;45.534;5.292;2022-07-29T03:51:46;3.28;;;1.60;;
28631;SDS011;15818;45.534;5.292;2022-07-29T03:54:13;3.95;;;1.73;;
28631;SDS011;15818;45.534;5.292;2022-07-29T03:56:43;5.78;;;1.60;;
28631;SDS011;15818;45.534;5.292;2022-07-29T03:59:12;3.13;;;1.80;;
28631;SDS011;15818;45.534;5.292;2022-07-29T04:01:40;5.70;;;1.70;;
28631;SDS011;15818;45.534;5.292;2022-07-29T04:04:06;3.72;;;1.55;;
28631;SDS011;15818;45.534;5.292;2022-07-29T04:06:42;5.78;;;2.00;;
28631;SDS011;15818;45.534;5.292;2022-07-29T04:09:10;4.43;;;1.63;;
28631;SDS011;15818;45.534;5.292;2022-07-29T04:11:37;4.22;;;1.70;;
28631;SDS011;15818;45.534;5.292;2022-07-29T04:14:04;3.55;;;1.77;;
28631;SDS011;15818;45.534;5.292;2022-07-29T04:16:30;8.70;;;1.85;;
28631;SDS011;15818;45.534;5.292;2022-07-29T04:18:56;1.88;;;1.60;;
28631;SDS011;15818;45.534;5.292;2022-07-29T04:21:22;5.45;;;1.70;;
28631;SDS011;15818;45.534;5.292;2022-07-29T04:23:48;4.18;;;1.95;;
28631;SDS011;15818;45.534;5.292;2022-07-29T04:26:18;3.15;;;1.80;;
28631;SDS011;15818;45.534;5.292;2022-07-29T04:28:45;3.58;;;1.70;;
28631;SDS011;15818;45.534;5.292;2022-07-29T04:31:11;5.80;;;2.55;;
28631;SDS011;15818;45.534;5.292;2022-07-29T04:33:38;4.88;;;2.10;;
28631;SDS011;15818;45.534;5.292;2022-07-29T04:36:04;6.68;;;1.50;;
28631;SDS011;15818;45.534;5.292;2022-07-29T04:38:30;3.97;;;1.80;;
28631;SDS011;15818;45.534;5.292;2022-07-29T04:40:56;4.47;;;1.60;;
28631;SDS011;15818;45.534;5.292;2022-07-29T04:43:21;3.40;;;1.80;;
28631;SDS011;15818;45.534;5.292;2022-07-29T04:45:47;4.85;;;1.70;;
28631;SDS011;15818;45.534;5.292;2022-07-29T04:48:13;6.93;;;1.70;;
28631;SDS011;15818;45.534;5.292;2022-07-29T04:50:38;10.10;;;2.17;;
28631;SDS011;15818;45.534;5.292;2022-07-29T04:53:05;2.45;;;1.85;;
28631;SDS011;15818;45.534;5.292;2022-07-29T04:55:31;4.45;;;1.77;;
28631;SDS011;15818;45.534;5.292;2022-07-29T04:57:57;3.63;;;1.67;;
28631;SDS011;15818;45.534;5.292;2022-07-29T05:00:22;2.10;;;1.80;;
28631;SDS011;15818;45.534;5.292;2022-07-29T05:02:48;3.30;;;1.60;;
28631;SDS011;15818;45.534;5.292;2022-07-29T05:05:14;2.78;;;1.73;;
28631;SDS011;15818;45.534;5.292;2022-07-29T05:07:40;3.47;;;1.90;;
28631;SDS011;15818;45.534;5.292;2022-07-29T05:10:06;2.90;;;1.85;;
28631;SDS011;15818;45.534;5.292;2022-07-29T05:12:33;8.55;;;2.20;;
28631;SDS011;15818;45.534;5.292;2022-07-29T05:14:58;5.40;;;1.73;;
28631;SDS011;15818;45.534;5.292;2022-07-29T05:17:24;4.03;;;1.90;;
28631;SDS011;15818;45.534;5.292;2022-07-29T05:19:50;6.70;;;2.10;;
28631;SDS011;15818;45.534;5.292;2022-07-29T05:22:19;4.03;;;1.95;;
28631;SDS011;15818;45.534;5.292;2022-07-29T05:24:45;2.42;;;1.63;;
28631;SDS011;15818;45.534;5.292;2022-07-29T05:27:11;6.97;;;1.80;;
28631;SDS011;15818;45.534;5.292;2022-07-29T05:29:37;4.57;;;1.60;;
28631;SDS011;15818;45.534;5.292;2022-07-29T05:32:03;5.47;;;1.67;;
28631;SDS011;15818;45.534;5.292;2022-07-29T05:34:30;6.80;;;1.90;;
28631;SDS011;15818;45.534;5.292;2022-07-29T05:36:56;4.22;;;1.83;;
28631;SDS011;15818;45.534;5.292;2022-07-29T05:39:22;4.22;;;1.77;;
28631;SDS011;15818;45.534;5.292;2022-07-29T05:41:48;4.28;;;1.90;;
28631;SDS011;15818;45.534;5.292;2022-07-29T05:44:14;6.30;;;1.73;;
28631;SDS011;15818;45.534;5.292;2022-07-29T05:46:40;4.40;;;1.73;;
28631;SDS011;15818;45.534;5.292;2022-07-29T05:49:05;7.43;;;1.70;;
28631;SDS011;15818;45.534;5.292;2022-07-29T05:51:32;4.95;;;2.08;;
28631;SDS011;15818;45.534;5.292;2022-07-29T05:53:58;10.00;;;1.80;;
28631;SDS011;15818;45.534;5.292;2022-07-29T05:56:24;4.32;;;1.73;;
28631;SDS011;15818;45.534;5.292;2022-07-29T05:58:50;6.72;;;1.83;;
28631;SDS011;15818;45.534;5.292;2022-07-29T06:01:17;6.05;;;1.90;;
28631;SDS011;15818;45.534;5.292;2022-07-29T06:03:43;2.75;;;2.17;;
28631;SDS011;15818;45.534;5.292;2022-07-29T06:06:09;4.43;;;2.08;;
28631;SDS011;15818;45.534;5.292;2022-07-29T06:08:35;12.02;;;2.25;;
28631;SDS011;15818;45.534;5.292;2022-07-29T06:11:01;6.53;;;2.10;;
28631;SDS011;15818;45.534;5.292;2022-07-29T06:13:28;9.70;;;2.40;;
28631;SDS011;15818;45.534;5.292;2022-07-29T06:15:54;7.63;;;2.40;;
28631;SDS011;15818;45.534;5.292;2022-07-29T06:18:20;2.53;;;2.33;;
28631;SDS011;15818;45.534;5.292;2022-07-29T06:20:48;6.70;;;2.90;;
28631;SDS011;15818;45.534;5.292;2022-07-29T06:23:15;4.05;;;2.20;;
28631;SDS011;15818;45.534;5.292;2022-07-29T06:25:41;4.20;;;2.22;;
28631;SDS011;15818;45.534;5.292;2022-07-29T06:28:07;4.07;;;2.63;;
28631;SDS011;15818;45.534;5.292;2022-07-29T06:30:32;5.10;;;2.45;;
28631;SDS011;15818;45.534;5.292;2022-07-29T06:32:58;7.68;;;2.55;;
28631;SDS011;15818;45.534;5.292;2022-07-29T06:35:26;10.63;;;2.78;;
28631;SDS011;15818;45.534;5.292;2022-07-29T06:37:52;9.25;;;2.95;;
28631;SDS011;15818;45.534;5.292;2022-07-29T06:40:17;12.05;;;2.80;;
28631;SDS011;15818;45.534;5.292;2022-07-29T06:43:01;8.65;;;3.10;;
28631;SDS011;15818;45.534;5.292;2022-07-29T06:45:27;8.27;;;2.83;;
28631;SDS011;15818;45.534;5.292;2022-07-29T06:47:53;9.00;;;3.40;;
28631;SDS011;15818;45.534;5.292;2022-07-29T06:50:19;7.68;;;3.30;;
28631;SDS011;15818;45.534;5.292;2022-07-29T06:52:46;8.07;;;3.42;;
28631;SDS011;15818;45.534;5.292;2022-07-29T06:55:12;5.13;;;3.10;;
28631;SDS011;15818;45.534;5.292;2022-07-29T06:57:39;8.45;;;3.40;;
28631;SDS011;15818;45.534;5.292;2022-07-29T07:00:05;5.32;;;2.78;;
28631;SDS011;15818;45.534;5.292;2022-07-29T07:02:31;9.50;;;3.17;;
28631;SDS011;15818;45.534;5.292;2022-07-29T07:04:57;8.10;;;3.05;;
28631;SDS011;15818;45.534;5.292;2022-07-29T07:07:23;10.02;;;3.25;;
28631;SDS011;15818;45.534;5.292;2022-07-29T07:09:49;11.07;;;3.28;;
28631;SDS011;15818;45.534;5.292;2022-07-29T07:12:15;6.85;;;3.33;;
28631;SDS011;15818;45.534;5.292;2022-07-29T07:14:41;4.65;;;3.17;;
28631;SDS011;15818;45.534;5.292;2022-07-29T07:17:07;6.80;;;3.38;;
28631;SDS011;15818;45.534;5.292;2022-07-29T07:19:33;4.32;;;3.10;;
28631;SDS011;15818;45.534;5.292;2022-07-29T07:21:58;7.45;;;2.88;;
28631;SDS011;15818;45.534;5.292;2022-07-29T07:24:24;4.20;;;2.80;;
28631;SDS011;15818;45.534;5.292;2022-07-29T07:26:50;6.18;;;3.70;;
28631;SDS011;15818;45.534;5.292;2022-07-29T07:29:16;9.82;;;3.50;;
28631;SDS011;15818;45.534;5.292;2022-07-29T07:31:42;9.35;;;3.53;;
28631;SDS011;15818;45.534;5.292;2022-07-29T07:34:08;9.45;;;3.25;;
28631;SDS011;15818;45.534;5.292;2022-07-29T07:36:34;9.13;;;3.80;;
28631;SDS011;15818;45.534;5.292;2022-07-29T07:39:00;30.83;;;6.20;;
28631;SDS011;15818;45.534;5.292;2022-07-29T07:41:26;41.80;;;7.63;;
28631;SDS011;15818;45.534;5.292;2022-07-29T07:43:51;37.33;;;6.57;;
28631;SDS011;15818;45.534;5.292;2022-07-29T07:46:17;14.70;;;4.07;;
28631;SDS011;15818;45.534;5.292;2022-07-29T07:48:43;9.82;;;3.70;;
28631;SDS011;15818;45.534;5.292;2022-07-29T07:51:09;8.45;;;3.28;;
28631;SDS011;15818;45.534;5.292;2022-07-29T07:53:35;37.45;;;6.10;;
28631;SDS011;15818;45.534;5.292;2022-07-29T07:56:01;8.27;;;3.75;;
28631;SDS011;15818;45.534;5.292;2022-07-29T07:58:27;10.55;;;3.10;;
28631;SDS011;15818;45.534;5.292;2022-07-29T08:00:53;6.45;;;4.03;;
28631;SDS011;15818;45.534;5.292;2022-07-29T08:03:18;8.55;;;3.33;;
28631;SDS011;15818;45.534;5.292;2022-07-29T08:05:44;9.07;;;3.95;;
28631;SDS011;15818;45.534;5.292;2022-07-29T08:08:11;7.20;;;4.25;;
28631;SDS011;15818;45.534;5.292;2022-07-29T08:10:37;10.57;;;4.25;;
28631;SDS011;15818;45.534;5.292;2022-07-29T08:13:18;7.97;;;4.03;;
28631;SDS011;15818;45.534;5.292;2022-07-29T08:15:47;11.55;;;3.85;;
28631;SDS011;15818;45.534;5.292;2022-07-29T08:18:22;7.90;;;3.50;;
28631;SDS011;15818;45.534;5.292;2022-07-29T08:20:49;7.13;;;3.63;;
28631;SDS011;15818;45.534;5.292;2022-07-29T08:23:15;5.35;;;3.08;;
28631;SDS011;15818;45.534;5.292;2022-07-29T08:25:41;8.90;;;3.40;;
28631;SDS011;15818;45.534;5.292;2022-07-29T08:30:32;12.40;;;3.83;;
28631;SDS011;15818;45.534;5.292;2022-07-29T08:32:59;6.50;;;3.85;;
28631;SDS011;15818;45.534;5.292;2022-07-29T08:35:24;8.00;;;4.22;;
28631;SDS011;15818;45.534;5.292;2022-07-29T08:37:51;7.30;;;3.95;;
28631;SDS011;15818;45.534;5.292;2022-07-29T08:40:17;5.93;;;4.10;;
28631;SDS011;15818;45.534;5.292;2022-07-29T08:42:43;7.78;;;3.75;;
28631;SDS011;15818;45.534;5.292;2022-07-29T08:45:09;6.50;;;4.00;;
28631;SDS011;15818;45.534;5.292;2022-07-29T08:47:35;6.50;;;4.38;;
28631;SDS011;15818;45.534;5.292;2022-07-29T08:50:04;8.50;;;5.30;;
28631;SDS011;15818;45.534;5.292;2022-07-29T08:52:32;9.75;;;5.55;;
28631;SDS011;15818;45.534;5.292;2022-07-29T08:55:03;9.07;;;5.10;;
28631;SDS011;15818;45.534;5.292;2022-07-29T08:57:30;10.25;;;3.92;;
28631;SDS011;15818;45.534;5.292;2022-07-29T08:59:57;6.38;;;3.92;;
28631;SDS011;15818;45.534;5.292;2022-07-29T09:02:27;5.43;;;3.70;;
28631;SDS011;15818;45.534;5.292;2022-07-29T09:04:56;4.82;;;3.88;;
28631;SDS011;15818;45.534;5.292;2022-07-29T09:07:25;7.40;;;4.43;;
28631;SDS011;15818;45.534;5.292;2022-07-29T09:09:51;6.85;;;3.85;;
28631;SDS011;15818;45.534;5.292;2022-07-29T09:12:16;8.45;;;4.00;;
28631;SDS011;15818;45.534;5.292;2022-07-29T09:14:42;7.00;;;3.75;;
28631;SDS011;15818;45.534;5.292;2022-07-29T09:19:34;5.10;;;2.83;;
28631;SDS011;15818;45.534;5.292;2022-07-29T09:22:03;6.70;;;3.60;;
28631;SDS011;15818;45.534;5.292;2022-07-29T09:27:21;9.02;;;4.13;;
28631;SDS011;15818;45.534;5.292;2022-07-29T09:30:07;7.75;;;3.97;;
28631;SDS011;15818;45.534;5.292;2022-07-29T09:35:24;12.40;;;4.53;;
28631;SDS011;15818;45.534;5.292;2022-07-29T09:37:50;8.18;;;3.83;;
28631;SDS011;15818;45.534;5.292;2022-07-29T09:40:21;7.72;;;4.40;;
28631;SDS011;15818;45.534;5.292;2022-07-29T09:42:51;13.68;;;4.78;;
28631;SDS011;15818;45.534;5.292;2022-07-29T09:45:27;7.93;;;4.68;;
28631;SDS011;15818;45.534;5.292;2022-07-29T09:47:54;8.13;;;3.53;;
28631;SDS011;15818;45.534;5.292;2022-07-29T09:50:22;7.97;;;3.95;;
28631;SDS011;15818;45.534;5.292;2022-07-29T09:52:59;7.93;;;3.78;;
28631;SDS011;15818;45.534;5.292;2022-07-29T09:55:25;10.48;;;3.95;;
28631;SDS011;15818;45.534;5.292;2022-07-29T09:57:50;7.82;;;4.50;;
28631;SDS011;15818;45.534;5.292;2022-07-29T10:00:17;6.38;;;3.83;;
28631;SDS011;15818;45.534;5.292;2022-07-29T10:02:45;7.40;;;4.50;;
28631;SDS011;15818;45.534;5.292;2022-07-29T10:05:19;7.50;;;3.78;;
28631;SDS011;15818;45.534;5.292;2022-07-29T10:07:53;9.20;;;4.72;;
28631;SDS011;15818;45.534;5.292;2022-07-29T10:10:29;6.03;;;3.95;;
28631;SDS011;15818;45.534;5.292;2022-07-29T10:12:57;8.70;;;4.40;;
28631;SDS011;15818;45.534;5.292;2022-07-29T10:15:25;5.50;;;3.92;;
28631;SDS011;15818;45.534;5.292;2022-07-29T10:17:52;4.65;;;4.15;;
28631;SDS011;15818;45.534;5.292;2022-07-29T10:20:20;6.00;;;4.20;;
28631;SDS011;15818;45.534;5.292;2022-07-29T10:22:47;4.93;;;3.75;;
28631;SDS011;15818;45.534;5.292;2022-07-29T10:25:14;4.50;;;3.50;;
28631;SDS011;15818;45.534;5.292;2022-07-29T10:27:41;6.20;;;3.70;;
28631;SDS011;15818;45.534;5.292;2022-07-29T10:30:07;4.53;;;3.85;;
28631;SDS011;15818;45.534;5.292;2022-07-29T10:32:45;7.75;;;4.47;;
28631;SDS011;15818;45.534;5.292;2022-07-29T10:35:46;6.75;;;4.03;;
28631;SDS011;15818;45.534;5.292;2022-07-29T10:43:53;6.15;;;3.58;;
28631;SDS011;15818;45.534;5.292;2022-07-29T10:46:19;7.90;;;3.50;;
28631;SDS011;15818;45.534;5.292;2022-07-29T10:54:38;6.15;;;3.47;;
28631;SDS011;15818;45.534;5.292;2022-07-29T10:57:29;5.47;;;3.55;;
28631;SDS011;15818;45.534;5.292;2022-07-29T11:07:24;5.30;;;3.65;;
28631;SDS011;15818;45.534;5.292;2022-07-29T11:10:36;5.38;;;3.65;;
28631;SDS011;15818;45.534;5.292;2022-07-29T11:15:16;4.93;;;3.83;;
28631;SDS011;15818;45.534;5.292;2022-07-29T11:23:26;3.67;;;3.35;;
28631;SDS011;15818;45.534;5.292;2022-07-29T11:31:17;3.22;;;2.90;;
28631;SDS011;15818;45.534;5.292;2022-07-29T11:47:34;5.65;;;2.95;;
28631;SDS011;15818;45.534;5.292;2022-07-29T11:50:06;3.13;;;2.70;;
28631;SDS011;15818;45.534;5.292;2022-07-29T11:52:37;3.17;;;2.88;;
28631;SDS011;15818;45.534;5.292;2022-07-29T11:55:12;5.53;;;2.90;;
28631;SDS011;15818;45.534;5.292;2022-07-29T11:58:00;3.08;;;2.78;;
28631;SDS011;15818;45.534;5.292;2022-07-29T12:00:29;3.00;;;2.70;;
28631;SDS011;15818;45.534;5.292;2022-07-29T12:02:57;3.00;;;2.70;;
28631;SDS011;15818;45.534;5.292;2022-07-29T12:05:32;3.67;;;2.80;;
28631;SDS011;15818;45.534;5.292;2022-07-29T12:08:06;4.47;;;2.65;;
28631;SDS011;15818;45.534;5.292;2022-07-29T12:10:37;4.18;;;3.00;;
28631;SDS011;15818;45.534;5.292;2022-07-29T12:13:04;2.67;;;2.47;;
28631;SDS011;15818;45.534;5.292;2022-07-29T12:15:30;2.58;;;2.38;;
28631;SDS011;15818;45.534;5.292;2022-07-29T12:17:56;3.88;;;2.70;;
28631;SDS011;15818;45.534;5.292;2022-07-29T12:20:26;3.55;;;2.90;;
28631;SDS011;15818;45.534;5.292;2022-07-29T12:22:53;3.22;;;2.60;;
28631;SDS011;15818;45.534;5.292;2022-07-29T12:25:20;4.90;;;2.60;;
28631;SDS011;15818;45.534;5.292;2022-07-29T12:27:47;3.83;;;2.60;;
28631;SDS011;15818;45.534;5.292;2022-07-29T12:30:22;2.83;;;2.60;;
28631;SDS011;15818;45.534;5.292;2022-07-29T12:32:48;2.45;;;2.20;;
28631;SDS011;15818;45.534;5.292;2022-07-29T12:35:14;3.50;;;2.35;;
28631;SDS011;15818;45.534;5.292;2022-07-29T12:37:44;5.32;;;2.70;;
28631;SDS011;15818;45.534;5.292;2022-07-29T12:40:17;5.22;;;2.30;;
28631;SDS011;15818;45.534;5.292;2022-07-29T12:43:25;3.20;;;2.30;;
28631;SDS011;15818;45.534;5.292;2022-07-29T12:45:43;3.60;;;2.42;;
28631;SDS011;15818;45.534;5.292;2022-07-29T12:48:10;3.00;;;2.13;;
28631;SDS011;15818;45.534;5.292;2022-07-29T12:50:51;3.05;;;2.28;;
28631;SDS011;15818;45.534;5.292;2022-07-29T12:53:21;2.78;;;2.35;;
28631;SDS011;15818;45.534;5.292;2022-07-29T12:55:47;3.50;;;2.20;;
28631;SDS011;15818;45.534;5.292;2022-07-29T12:58:26;3.50;;;2.65;;
28631;SDS011;15818;45.534;5.292;2022-07-29T13:01:26;4.53;;;2.72;;
28631;SDS011;15818;45.534;5.292;2022-07-29T13:03:49;3.45;;;2.70;;
28631;SDS011;15818;45.534;5.292;2022-07-29T13:06:29;3.75;;;2.78;;
28631;SDS011;15818;45.534;5.292;2022-07-29T13:09:02;2.80;;;2.42;;
28631;SDS011;15818;45.534;5.292;2022-07-29T13:14:06;3.40;;;2.85;;
28631;SDS011;15818;45.534;5.292;2022-07-29T13:16:36;4.35;;;3.08;;
28631;SDS011;15818;45.534;5.292;2022-07-29T13:19:32;5.10;;;2.97;;
28631;SDS011;15818;45.534;5.292;2022-07-29T13:21:59;4.75;;;3.30;;
28631;SDS011;15818;45.534;5.292;2022-07-29T13:24:24;4.93;;;3.20;;
28631;SDS011;15818;45.534;5.292;2022-07-29T13:26:50;3.00;;;2.72;;
28631;SDS011;15818;45.534;5.292;2022-07-29T13:29:16;3.88;;;2.75;;
28631;SDS011;15818;45.534;5.292;2022-07-29T13:31:42;4.00;;;3.28;;
28631;SDS011;15818;45.534;5.292;2022-07-29T13:34:08;4.28;;;3.00;;
28631;SDS011;15818;45.534;5.292;2022-07-29T13:36:34;4.28;;;2.50;;
28631;SDS011;15818;45.534;5.292;2022-07-29T13:39:00;5.63;;;2.67;;
28631;SDS011;15818;45.534;5.292;2022-07-29T13:41:27;4.78;;;2.88;;
28631;SDS011;15818;45.534;5.292;2022-07-29T13:43:53;2.63;;;2.30;;
28631;SDS011;15818;45.534;5.292;2022-07-29T13:46:19;3.20;;;2.58;;
28631;SDS011;15818;45.534;5.292;2022-07-29T13:48:46;3.88;;;2.63;;
28631;SDS011;15818;45.534;5.292;2022-07-29T13:51:12;3.88;;;2.60;;
28631;SDS011;15818;45.534;5.292;2022-07-29T13:53:38;4.50;;;2.88;;
28631;SDS011;15818;45.534;5.292;2022-07-29T13:56:04;6.00;;;2.45;;
28631;SDS011;15818;45.534;5.292;2022-07-29T13:58:32;2.75;;;2.55;;
28631;SDS011;15818;45.534;5.292;2022-07-29T14:00:59;3.58;;;2.40;;
28631;SDS011;15818;45.534;5.292;2022-07-29T14:03:24;3.45;;;2.58;;
28631;SDS011;15818;45.534;5.292;2022-07-29T14:05:50;2.80;;;2.20;;
28631;SDS011;15818;45.534;5.292;2022-07-29T14:08:16;4.30;;;2.50;;
28631;SDS011;15818;45.534;5.292;2022-07-29T14:10:43;3.53;;;2.60;;
28631;SDS011;15818;45.534;5.292;2022-07-29T14:13:09;2.50;;;2.08;;
28631;SDS011;15818;45.534;5.292;2022-07-29T14:15:35;3.88;;;2.45;;
28631;SDS011;15818;45.534;5.292;2022-07-29T14:18:01;2.75;;;2.00;;
28631;SDS011;15818;45.534;5.292;2022-07-29T14:20:27;2.13;;;1.92;;
28631;SDS011;15818;45.534;5.292;2022-07-29T14:22:55;4.43;;;1.85;;
28631;SDS011;15818;45.534;5.292;2022-07-29T14:25:21;3.17;;;2.40;;
28631;SDS011;15818;45.534;5.292;2022-07-29T14:27:47;2.88;;;1.90;;
28631;SDS011;15818;45.534;5.292;2022-07-29T14:30:13;2.70;;;2.08;;
28631;SDS011;15818;45.534;5.292;2022-07-29T14:32:39;3.90;;;2.20;;
28631;SDS011;15818;45.534;5.292;2022-07-29T14:35:05;1.92;;;1.77;;
28631;SDS011;15818;45.534;5.292;2022-07-29T14:37:31;2.28;;;1.95;;
28631;SDS011;15818;45.534;5.292;2022-07-29T14:39:57;3.40;;;1.90;;
28631;SDS011;15818;45.534;5.292;2022-07-29T14:42:26;2.38;;;2.00;;
28631;SDS011;15818;45.534;5.292;2022-07-29T14:44:52;3.38;;;1.80;;
28631;SDS011;15818;45.534;5.292;2022-07-29T14:47:18;2.30;;;1.83;;
28631;SDS011;15818;45.534;5.292;2022-07-29T14:49:44;1.83;;;1.70;;
28631;SDS011;15818;45.534;5.292;2022-07-29T14:52:10;2.85;;;2.00;;
28631;SDS011;15818;45.534;5.292;2022-07-29T14:54:35;2.08;;;1.90;;
28631;SDS011;15818;45.534;5.292;2022-07-29T14:57:01;5.18;;;1.80;;
28631;SDS011;15818;45.534;5.292;2022-07-29T14:59:27;2.05;;;1.83;;
28631;SDS011;15818;45.534;5.292;2022-07-29T15:01:53;3.67;;;2.10;;
28631;SDS011;15818;45.534;5.292;2022-07-29T15:04:18;2.80;;;2.03;;
28631;SDS011;15818;45.534;5.292;2022-07-29T15:06:45;3.13;;;1.98;;
28631;SDS011;15818;45.534;5.292;2022-07-29T15:09:10;3.10;;;2.15;;
28631;SDS011;15818;45.534;5.292;2022-07-29T15:11:36;2.50;;;2.10;;
28631;SDS011;15818;45.534;5.292;2022-07-29T15:14:02;2.65;;;2.30;;
28631;SDS011;15818;45.534;5.292;2022-07-29T15:16:28;2.55;;;2.08;;
28631;SDS011;15818;45.534;5.292;2022-07-29T15:18:54;2.53;;;2.33;;
28631;SDS011;15818;45.534;5.292;2022-07-29T15:21:22;4.25;;;2.50;;
28631;SDS011;15818;45.534;5.292;2022-07-29T15:23:48;2.63;;;2.08;;
28631;SDS011;15818;45.534;5.292;2022-07-29T15:26:14;3.33;;;2.45;;
28631;SDS011;15818;45.534;5.292;2022-07-29T15:28:40;3.25;;;2.20;;
28631;SDS011;15818;45.534;5.292;2022-07-29T15:31:06;2.20;;;2.00;;
28631;SDS011;15818;45.534;5.292;2022-07-29T15:33:31;5.38;;;2.40;;
28631;SDS011;15818;45.534;5.292;2022-07-29T15:35:58;3.58;;;2.20;;
28631;SDS011;15818;45.534;5.292;2022-07-29T15:38:24;3.85;;;2.30;;
28631;SDS011;15818;45.534;5.292;2022-07-29T15:40:50;3.08;;;2.10;;
28631;SDS011;15818;45.534;5.292;2022-07-29T15:43:16;3.70;;;2.38;;
28631;SDS011;15818;45.534;5.292;2022-07-29T15:45:42;6.00;;;2.47;;
28631;SDS011;15818;45.534;5.292;2022-07-29T15:48:26;3.65;;;2.10;;
28631;SDS011;15818;45.534;5.292;2022-07-29T15:50:52;3.10;;;2.40;;
28631;SDS011;15818;45.534;5.292;2022-07-29T15:53:18;2.83;;;2.53;;
28631;SDS011;15818;45.534;5.292;2022-07-29T15:55:43;2.50;;;2.30;;
28631;SDS011;15818;45.534;5.292;2022-07-29T15:58:09;4.72;;;2.20;;
28631;SDS011;15818;45.534;5.292;2022-07-29T16:00:35;4.05;;;2.38;;
28631;SDS011;15818;45.534;5.292;2022-07-29T16:03:00;2.90;;;2.20;;
28631;SDS011;15818;45.534;5.292;2022-07-29T16:05:26;2.10;;;1.90;;